Carnival Triumph — C6FN5 — position and weather

sailwx.info

Track history (hours):
 
Tides and Currents Weather Stations Pressure Air Temp Water Temp Dewpoint Dewpoint Depression Visibility Wind Speed Wind Dir Waves Ship Positions

Carnival Triumph

Operator: Carnival Cruise Lines

Last reported at 2017-Apr-27 12:00 UTC. Time now 2017-Apr-27 18:53 UTC.
Position N 21°30' W 089°24'.

Type: Ship. MMSI: 308045000.

Wind from 150 at 30 knots

Barometer 1008.1 mb
Air temperature 25.0 ° C
Visibility: greater than 10.8 NM
Dewpoint 23.6 ° C
Water temperature 26.0 ° C

Date/timePositionNaut miles runAvg speedWind from/ knotsBaromVisibWave heightAir tempDewpointWater temp
2017-Apr-27 12:00N 21°30' W 089°24'14811.7 150 / 301008.110.8 25.023.626.0
2017-Apr-26 23:20N 20°39' W 086°55'619.8
2017-Apr-26 23:01N 20°33' W 086°58'5 9.9
2017-Apr-26 22:31N 20°29' W 086°59'0 0.0
2017-Apr-26 22:00N 20°29' W 086°59'0 0.0
2017-Apr-26 21:31N 20°29' W 086°59'0 0.0
2017-Apr-26 21:01N 20°29' W 086°59'0 0.0
2017-Apr-26 20:31N 20°29' W 086°59'0 0.0
2017-Apr-26 19:59N 20°29' W 086°59'0 0.0
2017-Apr-26 19:29N 20°29' W 086°59'0 0.0
2017-Apr-26 18:59N 20°29' W 086°59'0 0.0
2017-Apr-26 18:29N 20°29' W 086°59'0 0.0
2017-Apr-26 17:56N 20°29' W 086°59'0 0.0
2017-Apr-26 17:23N 20°29' W 086°59'0 0.0
2017-Apr-26 16:59N 20°29' W 086°59'0 0.0
2017-Apr-26 16:29N 20°29' W 086°59'0 0.0
2017-Apr-26 15:59N 20°29' W 086°59'0 0.0
2017-Apr-26 15:29N 20°29' W 086°59'0 0.0
2017-Apr-26 14:59N 20°29' W 086°59'0 0.0
2017-Apr-26 14:29N 20°29' W 086°59'0 0.0
2017-Apr-26 13:29N 20°29' W 086°59'0 0.0
2017-Apr-26 13:00N 20°29' W 086°59'2 4.2
2017-Apr-26 12:30N 20°31' W 086°59'714.7
2017-Apr-26 12:00N 20°37' W 086°55'16313.5
2017-Apr-26 00:00N 23°18' W 087°18'22018.3 130 / 161010.710.8 25.020.727.0
2017-Apr-25 12:00N 26°48' W 088°30'75 2.1 250 / 101012.110.8 21.016.424.0
2017-Apr-24 00:00N 28°00' W 088°54'20417.0 310 / 251012.610.8 22.020.624.0
2017-Apr-23 12:00N 24°48' W 087°36'24518.9 360 / 191013.610.8 24.021.126.0
2017-Apr-22 23:00N 20°48' W 086°42'1230.8 130 / 201010.110.8 26.024.628.0
2017-Apr-22 22:37N 20°41' W 086°52'219.8
2017-Apr-22 22:31N 20°40' W 086°53'1019.3
2017-Apr-22 22:01N 20°31' W 086°59'3 5.3
2017-Apr-22 21:31N 20°29' W 086°59'0 0.0
2017-Apr-22 21:01N 20°29' W 086°59'0 0.0
2017-Apr-22 20:31N 20°29' W 086°59'0 0.0
2017-Apr-22 20:00N 20°29' W 086°59'0 0.0
2017-Apr-22 19:27N 20°29' W 086°59'0 0.0
2017-Apr-22 19:00N 20°29' W 086°59'0 0.0
2017-Apr-22 18:27N 20°29' W 086°59'0 0.0
2017-Apr-22 18:00N 20°29' W 086°59'0 0.0
2017-Apr-22 17:30N 20°29' W 086°59'0 0.0
2017-Apr-22 16:54N 20°29' W 086°59'0 0.0
2017-Apr-22 16:30N 20°29' W 086°59'0 0.0
2017-Apr-22 16:00N 20°29' W 086°59'0 0.0
2017-Apr-22 15:27N 20°29' W 086°59'0 0.0
2017-Apr-22 15:00N 20°29' W 086°59'0 0.0
2017-Apr-22 14:30N 20°29' W 086°59'0 0.0
2017-Apr-22 13:30N 20°29' W 086°59'0 0.0
2017-Apr-22 13:00N 20°29' W 086°59'0 0.0
2017-Apr-22 12:30N 20°29' W 086°59'0 0.0
2017-Apr-22 12:00N 20°29' W 086°59'1 2.9
2017-Apr-22 11:31N 20°30' W 086°59'713.2
2017-Apr-22 11:00N 20°36' W 086°56'17015.4
2017-Apr-22 00:00N 23°24' W 087°24'22018.3 080 / 271012.610.8 24.022.625.0
2017-Apr-21 12:00N 26°54' W 088°36'149 3.1 090 / 181018.110.8 23.020.124.0
2017-Apr-19 12:00N 24°30' W 089°18'176 6.8 090 / 131018.110.8 24.019.625.0
2017-Apr-18 10:00N 21°36' W 088°48'12111.5 060 / 61016.110.8 24.021.125.0
2017-Apr-17 23:31N 20°37' W 086°55'021.7
2017-Apr-17 23:30N 20°37' W 086°55'917.1
2017-Apr-17 23:01N 20°29' W 086°59'0 0.9
2017-Apr-17 22:30N 20°29' W 086°59'0 0.0
2017-Apr-17 22:00N 20°29' W 086°59'0 0.0
2017-Apr-17 21:31N 20°29' W 086°59'0 0.0
2017-Apr-17 21:00N 20°29' W 086°59'0 0.0
2017-Apr-17 20:30N 20°29' W 086°59'0 0.0
2017-Apr-17 19:59N 20°29' W 086°59'0 0.0
2017-Apr-17 19:28N 20°29' W 086°59'0 0.0
2017-Apr-17 18:55N 20°29' W 086°59'0 0.0
2017-Apr-17 18:25N 20°29' W 086°59'0 0.0
2017-Apr-17 17:56N 20°29' W 086°59'0 0.0
2017-Apr-17 17:28N 20°29' W 086°59'0 0.0
2017-Apr-17 16:58N 20°29' W 086°59'0 0.0
2017-Apr-17 16:26N 20°29' W 086°59'0 0.0
2017-Apr-17 15:59N 20°29' W 086°59'0 0.0
2017-Apr-17 15:29N 20°29' W 086°59'0 0.0
2017-Apr-17 14:58N 20°29' W 086°59'0 0.0
2017-Apr-17 13:59N 20°29' W 086°59'0 0.0
2017-Apr-17 13:31N 20°29' W 086°59'0 0.0
2017-Apr-17 13:01N 20°29' W 086°59'2 4.2
2017-Apr-17 12:30N 20°31' W 086°59'  
Track history (hours):
 
Tides and Currents Weather Stations Pressure Air Temp Water Temp Dewpoint Dewpoint Depression Visibility Wind Speed Wind Dir Waves Ship Positions

Carnival Triumph

Operator: Carnival Cruise Lines

Last reported at 2017-Apr-27 12:00 UTC. Time now 2017-Apr-27 18:53 UTC.
Position N 21°30' W 089°24'.

Type: Ship. MMSI: 308045000.

Wind from 150 at 30 knots

Barometer 1008.1 mb
Air temperature 25.0 ° C
Visibility: greater than 10.8 NM
Dewpoint 23.6 ° C
Water temperature 26.0 ° C

Date/timePositionNaut miles runAvg speedWind from/ knotsBaromVisibWave heightAir tempDewpointWater temp
2017-Apr-27 12:00N 21°30' W 089°24'14811.7 150 / 301008.110.8 25.023.626.0
2017-Apr-26 23:20N 20°39' W 086°55'619.8
2017-Apr-26 23:01N 20°33' W 086°58'5 9.9
2017-Apr-26 22:31N 20°29' W 086°59'0 0.0
2017-Apr-26 22:00N 20°29' W 086°59'0 0.0
2017-Apr-26 21:31N 20°29' W 086°59'0 0.0
2017-Apr-26 21:01N 20°29' W 086°59'0 0.0
2017-Apr-26 20:31N 20°29' W 086°59'0 0.0
2017-Apr-26 19:59N 20°29' W 086°59'0 0.0
2017-Apr-26 19:29N 20°29' W 086°59'0 0.0
2017-Apr-26 18:59N 20°29' W 086°59'0 0.0
2017-Apr-26 18:29N 20°29' W 086°59'0 0.0
2017-Apr-26 17:56N 20°29' W 086°59'0 0.0
2017-Apr-26 17:23N 20°29' W 086°59'0 0.0
2017-Apr-26 16:59N 20°29' W 086°59'0 0.0
2017-Apr-26 16:29N 20°29' W 086°59'0 0.0
2017-Apr-26 15:59N 20°29' W 086°59'0 0.0
2017-Apr-26 15:29N 20°29' W 086°59'0 0.0
2017-Apr-26 14:59N 20°29' W 086°59'0 0.0
2017-Apr-26 14:29N 20°29' W 086°59'0 0.0
2017-Apr-26 13:29N 20°29' W 086°59'0 0.0
2017-Apr-26 13:00N 20°29' W 086°59'2 4.2
2017-Apr-26 12:30N 20°31' W 086°59'714.7
2017-Apr-26 12:00N 20°37' W 086°55'16313.5
2017-Apr-26 00:00N 23°18' W 087°18'22018.3 130 / 161010.710.8 25.020.727.0
2017-Apr-25 12:00N 26°48' W 088°30'75 2.1 250 / 101012.110.8 21.016.424.0
2017-Apr-24 00:00N 28°00' W 088°54'20417.0 310 / 251012.610.8 22.020.624.0
2017-Apr-23 12:00N 24°48' W 087°36'24518.9 360 / 191013.610.8 24.021.126.0
2017-Apr-22 23:00N 20°48' W 086°42'1230.8 130 / 201010.110.8 26.024.628.0
2017-Apr-22 22:37N 20°41' W 086°52'219.8
2017-Apr-22 22:31N 20°40' W 086°53'1019.3
2017-Apr-22 22:01N 20°31' W 086°59'3 5.3
2017-Apr-22 21:31N 20°29' W 086°59'0 0.0
2017-Apr-22 21:01N 20°29' W 086°59'0 0.0
2017-Apr-22 20:31N 20°29' W 086°59'0 0.0
2017-Apr-22 20:00N 20°29' W 086°59'0 0.0
2017-Apr-22 19:27N 20°29' W 086°59'0 0.0
2017-Apr-22 19:00N 20°29' W 086°59'0 0.0
2017-Apr-22 18:27N 20°29' W 086°59'0 0.0
2017-Apr-22 18:00N 20°29' W 086°59'0 0.0
2017-Apr-22 17:30N 20°29' W 086°59'0 0.0
2017-Apr-22 16:54N 20°29' W 086°59'0 0.0
2017-Apr-22 16:30N 20°29' W 086°59'0 0.0
2017-Apr-22 16:00N 20°29' W 086°59'0 0.0
2017-Apr-22 15:27N 20°29' W 086°59'0 0.0
2017-Apr-22 15:00N 20°29' W 086°59'0 0.0
2017-Apr-22 14:30N 20°29' W 086°59'0 0.0
2017-Apr-22 13:30N 20°29' W 086°59'0 0.0
2017-Apr-22 13:00N 20°29' W 086°59'0 0.0
2017-Apr-22 12:30N 20°29' W 086°59'0 0.0
2017-Apr-22 12:00N 20°29' W 086°59'1 2.9
2017-Apr-22 11:31N 20°30' W 086°59'713.2
2017-Apr-22 11:00N 20°36' W 086°56'17015.4
2017-Apr-22 00:00N 23°24' W 087°24'22018.3 080 / 271012.610.8 24.022.625.0
2017-Apr-21 12:00N 26°54' W 088°36'149 3.1 090 / 181018.110.8 23.020.124.0
2017-Apr-19 12:00N 24°30' W 089°18'176 6.8 090 / 131018.110.8 24.019.625.0
2017-Apr-18 10:00N 21°36' W 088°48'12111.5 060 / 61016.110.8 24.021.125.0
2017-Apr-17 23:31N 20°37' W 086°55'021.7
2017-Apr-17 23:30N 20°37' W 086°55'917.1
2017-Apr-17 23:01N 20°29' W 086°59'0 0.9
2017-Apr-17 22:30N 20°29' W 086°59'0 0.0
2017-Apr-17 22:00N 20°29' W 086°59'0 0.0
2017-Apr-17 21:31N 20°29' W 086°59'0 0.0
2017-Apr-17 21:00N 20°29' W 086°59'0 0.0
2017-Apr-17 20:30N 20°29' W 086°59'0 0.0
2017-Apr-17 19:59N 20°29' W 086°59'0 0.0
2017-Apr-17 19:28N 20°29' W 086°59'0 0.0
2017-Apr-17 18:55N 20°29' W 086°59'0 0.0
2017-Apr-17 18:25N 20°29' W 086°59'0 0.0
2017-Apr-17 17:56N 20°29' W 086°59'0 0.0
2017-Apr-17 17:28N 20°29' W 086°59'0 0.0
2017-Apr-17 16:58N 20°29' W 086°59'0 0.0
2017-Apr-17 16:26N 20°29' W 086°59'0 0.0
2017-Apr-17 15:59N 20°29' W 086°59'0 0.0
2017-Apr-17 15:29N 20°29' W 086°59'0 0.0
2017-Apr-17 14:58N 20°29' W 086°59'0 0.0
2017-Apr-17 13:59N 20°29' W 086°59'0 0.0
2017-Apr-17 13:31N 20°29' W 086°59'0 0.0
2017-Apr-17 13:01N 20°29' W 086°59'2 4.2
2017-Apr-17 12:30N 20°31' W 086°59'  

Dump ship's entire track history